Time;durP1;ratioP1;P1;durP2;ratioP2;P2;SDS_P1;SDS_P2;PMS_P1;PMS_P2;Temp;Humidity;BMP_temperature;BMP_pressure;BME280_temperature;BME280_humidity;BME280_pressure;Samples;Min_cycle;Max_cycle;Signal;HPM_P1;HPM_P2
2020/12/21 00:00:09;;;;;;;67.97;31.07;;;;;;;2.75;91.14;100663.80;1702220;83;21046;-66
2020/12/21 00:02:47;;;;;;;65.65;28.87;;;;;;;2.74;90.98;100663.67;1702109;83;21118;-66
2020/12/21 00:05:15;;;;;;;61.35;27.05;;;;;;;2.67;90.97;100659.83;1702169;84;21216;-66
2020/12/21 00:07:43;;;;;;;64.87;27.25;;;;;;;2.67;91.11;100667.48;1702552;84;21038;-64
2020/12/21 00:10:11;;;;;;;60.33;27.82;;;;;;;2.72;91.28;100667.41;1702548;84;21054;-65
2020/12/21 00:12:39;;;;;;;67.97;28.73;;;;;;;2.80;91.37;100670.09;1718308;81;21196;-65
2020/12/21 00:15:07;;;;;;;64.47;28.38;;;;;;;2.88;91.25;100670.63;1732970;81;21232;-66
2020/12/21 00:17:35;;;;;;;64.00;27.77;;;;;;;2.99;91.12;100674.78;1732850;83;21093;-66
2020/12/21 00:20:04;;;;;;;66.67;27.90;;;;;;;2.98;90.85;100668.33;1733009;83;21161;-66
2020/12/21 00:22:32;;;;;;;72.53;30.57;;;;;;;3.00;90.83;100669.28;1733090;83;21050;-66
2020/12/21 00:24:59;;;;;;;67.85;30.62;;;;;;;2.98;90.61;100670.87;1732869;83;21074;-64
2020/12/21 00:27:27;;;;;;;66.87;30.57;;;;;;;2.96;90.66;100666.93;1732834;83;21536;-66
2020/12/21 00:29:55;;;;;;;66.40;29.23;;;;;;;2.99;90.61;100663.70;1733234;83;21074;-65
2020/12/21 00:32:23;;;;;;;69.47;28.55;;;;;;;3.01;90.51;100664.70;1733017;83;21046;-65
2020/12/21 00:34:50;;;;;;;75.22;31.97;;;;;;;2.98;90.39;100664.09;1732887;82;21172;-65
2020/12/21 00:37:18;;;;;;;71.17;30.95;;;;;;;2.99;90.37;100668.80;1732905;83;21038;-65
2020/12/21 00:39:48;;;;;;;63.73;29.82;;;;;;;3.01;90.55;100662.15;1733226;82;21654;-65
2020/12/21 00:42:15;;;;;;;75.92;31.07;;;;;;;3.09;90.54;100664.83;1733043;83;21164;-65
2020/12/21 00:44:43;;;;;;;64.07;28.73;;;;;;;3.16;90.41;100661.91;1732993;83;21090;-65
2020/12/21 00:47:11;;;;;;;63.60;27.37;;;;;;;3.22;90.25;100663.59;1733084;83;21042;-65
2020/12/21 00:49:39;;;;;;;58.30;26.80;;;;;;;3.20;89.89;100662.59;1732855;83;21247;-65
2020/12/21 00:52:06;;;;;;;62.13;28.20;;;;;;;3.20;89.89;100663.87;1733028;83;21184;-64
2020/12/21 00:54:34;;;;;;;64.15;28.40;;;;;;;3.20;89.94;100657.49;1732948;83;21175;-64
2020/12/21 00:57:02;;;;;;;65.55;29.05;;;;;;;3.24;89.85;100659.48;1733005;81;21006;-65
2020/12/21 00:59:30;;;;;;;63.60;28.67;;;;;;;3.27;89.66;100653.70;1732986;82;21050;-64
2020/12/21 01:01:58;;;;;;;67.65;30.55;;;;;;;3.25;89.59;100657.41;1732896;83;21042;-64
2020/12/21 01:04:25;;;;;;;68.60;29.63;;;;;;;3.26;89.57;100663.42;1735369;81;21202;-65
2020/12/21 01:06:54;;;;;;;73.52;28.90;;;;;;;3.27;89.45;100658.80;1738501;81;21166;-65
2020/12/21 01:09:22;;;;;;;69.75;29.72;;;;;;;3.28;89.47;100658.41;1735017;82;21066;-65
2020/12/21 01:11:53;;;;;;;72.92;32.55;;;;;;;3.26;89.26;100654.09;1729545;83;21027;-64
2020/12/21 01:14:21;;;;;;;65.78;29.23;;;;;;;3.22;89.11;100657.22;1729532;83;21058;-64
2020/12/21 01:16:49;;;;;;;74.47;31.70;;;;;;;3.21;89.22;100653.30;1729577;83;21018;-64
2020/12/21 01:19:17;;;;;;;77.55;32.42;;;;;;;3.19;89.36;100653.19;1729587;83;21528;-64
2020/12/21 01:21:45;;;;;;;74.92;30.70;;;;;;;3.15;89.12;100652.88;1729473;83;21078;-64
2020/12/21 01:24:12;;;;;;;66.30;28.92;;;;;;;3.11;89.28;100649.23;1729482;83;21062;-64
2020/12/21 01:26:40;;;;;;;69.42;28.80;;;;;;;3.08;89.33;100649.41;1729702;83;21212;-65
2020/12/21 01:29:08;;;;;;;69.95;30.65;;;;;;;3.09;89.60;100645.70;1729849;83;21189;-64
2020/12/21 01:31:35;;;;;;;68.55;28.27;;;;;;;3.17;89.61;100641.11;1729515;83;21197;-64
2020/12/21 01:34:05;;;;;;;57.53;25.30;;;;;;;3.20;89.39;100647.29;1728453;83;21576;-64
2020/12/21 01:36:33;;;;;;;63.60;28.98;;;;;;;3.14;89.27;100641.79;1729516;83;21066;-65
2020/12/21 01:39:01;;;;;;;64.85;28.55;;;;;;;3.12;89.31;100643.74;1729556;83;21042;-65
2020/12/21 01:41:29;;;;;;;67.22;26.68;;;;;;;3.13;89.42;100641.67;1729593;83;21462;-64
2020/12/21 01:43:57;;;;;;;64.53;26.70;;;;;;;3.11;89.34;100645.81;1729840;83;21067;-65
2020/12/21 01:46:26;;;;;;;69.72;26.97;;;;;;;3.13;89.51;100642.95;1729692;83;21034;-64
2020/12/21 01:48:54;;;;;;;66.60;27.90;;;;;;;3.17;89.43;100640.71;1729906;83;21054;-65
2020/12/21 01:51:26;;;;;;;65.42;28.62;;;;;;;3.19;89.29;100645.53;1729764;83;21055;-65
2020/12/21 01:53:54;;;;;;;62.67;26.87;;;;;;;3.18;89.33;100644.14;1729884;83;21184;-64
2020/12/21 01:56:23;;;;;;;60.05;24.52;;;;;;;3.18;89.18;100648.88;1729879;83;21189;-65
2020/12/21 01:58:51;;;;;;;70.32;27.87;;;;;;;3.07;89.02;100648.52;1729700;83;21062;-65
2020/12/21 02:01:19;;;;;;;63.92;28.50;;;;;;;2.85;89.28;100648.75;1729937;83;21196;-65
2020/12/21 02:03:49;;;;;;;62.03;26.27;;;;;;;2.85;89.88;100645.29;1727228;83;21236;-64
2020/12/21 02:06:18;;;;;;;64.62;26.10;;;;;;;2.91;89.92;100648.27;1724215;83;21070;-65
2020/12/21 02:08:46;;;;;;;68.35;27.82;;;;;;;2.89;89.71;100646.00;1724493;83;21039;-65
2020/12/21 02:11:15;;;;;;;65.35;26.33;;;;;;;2.84;89.98;100648.23;1724178;83;21128;-65
2020/12/21 02:13:43;;;;;;;66.85;27.10;;;;;;;2.90;90.13;100646.13;1724264;83;21176;-65
2020/12/21 02:16:15;;;;;;;69.47;27.27;;;;;;;2.85;89.93;100652.94;1724414;83;21217;-64
2020/12/21 02:18:40;;;;;;;65.72;27.73;;;;;;;2.80;90.14;100647.16;1724144;83;21050;-65
2020/12/21 02:21:09;;;;;;;69.35;28.83;;;;;;;2.82;90.34;100644.69;1724520;83;21078;-64
2020/12/21 02:23:36;;;;;;;72.27;27.52;;;;;;;2.89;90.51;100644.33;1724323;83;21087;-64
2020/12/21 02:26:05;;;;;;;62.93;27.67;;;;;;;2.95;90.27;100643.86;1724238;83;21092;-64
2020/12/21 02:28:33;;;;;;;67.10;26.82;;;;;;;2.99;90.22;100637.80;1723845;82;21058;-65
2020/12/21 02:31:01;;;;;;;58.98;26.42;;;;;;;2.97;89.92;100634.66;1724771;83;21213;-64
2020/12/21 02:33:30;;;;;;;61.95;27.17;;;;;;;2.93;90.08;100632.70;1724835;83;21201;-65
2020/12/21 02:35:58;;;;;;;63.33;25.92;;;;;;;2.95;90.28;100632.38;1724965;82;21367;-66
2020/12/21 02:38:26;;;;;;;57.00;25.70;;;;;;;2.95;90.13;100634.57;1724903;83;21035;-65
2020/12/21 02:40:53;;;;;;;62.08;24.45;;;;;;;2.97;90.27;100634.66;1724835;82;21624;-64
2020/12/21 02:43:21;;;;;;;59.18;26.30;;;;;;;3.02;90.28;100640.95;1724710;83;21083;-64
2020/12/21 02:45:50;;;;;;;66.30;25.62;;;;;;;3.02;90.02;100644.78;1724926;83;21216;-64
2020/12/21 02:48:18;;;;;;;64.37;25.92;;;;;;;2.95;89.98;100651.14;1724934;83;21091;-64
2020/12/21 02:50:46;;;;;;;61.15;26.33;;;;;;;2.90;89.99;100651.22;1724778;83;21058;-65
2020/12/21 02:53:16;;;;;;;64.55;26.90;;;;;;;2.82;90.08;100650.70;1724822;83;21046;-65
2020/12/21 02:55:45;;;;;;;64.30;25.90;;;;;;;2.76;90.31;100656.63;1724629;82;21031;-64
2020/12/21 02:58:14;;;;;;;59.00;26.75;;;;;;;2.66;90.13;100651.67;1725072;82;21489;-64
2020/12/21 03:00:43;;;;;;;66.87;26.50;;;;;;;2.64;90.77;100654.50;1724717;82;21058;-65
2020/12/21 03:03:13;;;;;;;63.55;26.65;;;;;;;2.59;90.81;100650.74;1725484;83;21090;-65
2020/12/21 03:05:42;;;;;;;65.80;25.23;;;;;;;2.65;91.24;100660.11;1732596;83;21066;-64
2020/12/21 03:08:11;;;;;;;66.53;27.65;;;;;;;2.71;91.17;100660.52;1732448;83;21070;-65
2020/12/21 03:10:39;;;;;;;67.80;26.73;;;;;;;2.67;91.05;100656.38;1732453;83;21077;-66
2020/12/21 03:13:07;;;;;;;69.12;27.52;;;;;;;2.56;91.04;100656.91;1732485;83;21225;-65
2020/12/21 03:15:36;;;;;;;60.70;26.23;;;;;;;2.53;91.28;100663.07;1732472;83;21030;-64
2020/12/21 03:18:04;;;;;;;57.83;24.45;;;;;;;2.55;91.46;100654.75;1732502;83;21093;-65
2020/12/21 03:20:32;;;;;;;67.25;25.88;;;;;;;2.63;91.87;100657.84;1732475;83;21070;-66
2020/12/21 03:23:00;;;;;;;56.85;22.85;;;;;;;2.70;91.84;100654.94;1732626;83;21200;-65
2020/12/21 03:25:27;;;;;;;69.42;25.65;;;;;;;2.76;91.74;100656.63;1732642;83;21161;-65
2020/12/21 03:27:55;;;;;;;57.50;24.57;;;;;;;2.78;91.51;100656.75;1732498;83;21063;-65
2020/12/21 03:30:23;;;;;;;62.38;25.50;;;;;;;2.79;91.59;100653.01;1732721;83;21031;-65
2020/12/21 03:32:53;;;;;;;64.00;24.10;;;;;;;2.80;91.40;100652.25;1732650;83;21074;-65
2020/12/21 03:35:25;;;;;;;53.17;23.40;;;;;;;2.81;91.55;100648.91;1732150;83;21066;-65
2020/12/21 03:37:54;;;;;;;61.42;24.80;;;;;;;2.89;91.60;100651.98;1732650;83;21461;-66
2020/12/21 03:40:21;;;;;;;56.25;23.35;;;;;;;2.93;91.35;100645.45;1732452;83;21035;-65
2020/12/21 03:42:49;;;;;;;57.30;23.52;;;;;;;2.93;91.24;100651.83;1732649;83;21063;-65
2020/12/21 03:45:17;;;;;;;54.50;22.27;;;;;;;2.92;91.09;100656.41;1732578;83;21208;-65
2020/12/21 03:47:45;;;;;;;53.25;23.18;;;;;;;2.86;91.12;100657.27;1732488;83;21055;-66
2020/12/21 03:50:13;;;;;;;58.50;23.98;;;;;;;2.80;91.04;100654.80;1732738;83;21078;-65
2020/12/21 03:52:41;;;;;;;55.83;22.80;;;;;;;2.77;91.25;100655.88;1732736;83;21402;-66
2020/12/21 03:55:08;;;;;;;63.58;23.47;;;;;;;2.78;91.23;100662.72;1732541;83;21062;-65
2020/12/21 03:57:36;;;;;;;53.10;22.82;;;;;;;2.76;91.07;100657.91;1732504;83;21059;-65
2020/12/21 04:00:07;;;;;;;55.85;22.05;;;;;;;2.74;91.35;100661.13;1732637;83;21071;-65
2020/12/21 04:02:40;;;;;;;52.08;22.60;;;;;;;2.80;91.51;100662.84;1732412;83;21201;-64
2020/12/21 04:05:09;;;;;;;53.02;21.95;;;;;;;2.82;91.34;100663.45;1726685;83;21070;-66
2020/12/21 04:07:37;;;;;;;51.18;22.48;;;;;;;2.85;91.46;100656.77;1724661;82;21200;-64
2020/12/21 04:10:07;;;;;;;56.88;23.02;;;;;;;2.82;91.19;100662.53;1724792;83;21210;-66
2020/12/21 04:12:35;;;;;;;59.10;24.07;;;;;;;2.79;91.29;100660.66;1724729;82;21075;-65
2020/12/21 04:15:06;;;;;;;58.48;22.02;;;;;;;2.85;91.41;100653.84;1724875;82;21147;-65
2020/12/21 04:17:34;;;;;;;58.53;24.13;;;;;;;2.85;91.18;100654.21;1724892;82;21293;-66
2020/12/21 04:20:03;;;;;;;59.03;24.90;;;;;;;2.85;91.26;100651.30;1724894;83;21061;-65
2020/12/21 04:22:30;;;;;;;54.63;23.10;;;;;;;2.88;91.21;100653.17;1724729;83;21233;-65
2020/12/21 04:24:59;;;;;;;57.62;23.65;;;;;;;2.89;91.25;100648.55;1724916;83;21270;-65
2020/12/21 04:27:27;;;;;;;57.85;24.67;;;;;;;2.93;91.21;100650.15;1724724;83;21059;-65
2020/12/21 04:29:55;;;;;;;60.08;25.65;;;;;;;2.98;91.13;100645.38;1724716;83;21075;-65
2020/12/21 04:32:22;;;;;;;56.98;21.90;;;;;;;3.01;91.11;100645.17;1724623;83;21189;-65
2020/12/21 04:34:50;;;;;;;60.12;22.80;;;;;;;2.98;90.79;100654.30;1724840;82;21213;-65
2020/12/21 04:37:18;;;;;;;61.55;25.08;;;;;;;2.89;90.47;100649.83;1724954;83;21050;-64
2020/12/21 04:39:45;;;;;;;64.80;26.10;;;;;;;2.79;90.59;100641.94;1724867;83;21177;-65
2020/12/21 04:42:13;;;;;;;54.95;24.30;;;;;;;2.77;90.74;100640.58;1724733;83;21083;-65
2020/12/21 04:44:42;;;;;;;58.05;24.98;;;;;;;2.74;90.94;100639.06;1724682;83;21197;-65
2020/12/21 04:47:10;;;;;;;63.10;24.30;;;;;;;2.76;91.17;100640.06;1724963;82;21058;-64
2020/12/21 04:49:40;;;;;;;61.60;25.40;;;;;;;2.85;91.31;100642.73;1724803;83;21276;-64
2020/12/21 04:52:11;;;;;;;58.83;24.60;;;;;;;2.94;91.17;100639.16;1724710;83;21054;-64
2020/12/21 04:54:40;;;;;;;59.10;24.72;;;;;;;2.97;90.94;100643.58;1725051;82;21126;-65
2020/12/21 04:57:08;;;;;;;69.67;26.48;;;;;;;2.98;90.91;100644.09;1724615;82;21071;-64
2020/12/21 04:59:36;;;;;;;63.52;25.48;;;;;;;2.96;90.82;100643.09;1724808;82;21023;-65
2020/12/21 05:02:05;;;;;;;69.85;25.75;;;;;;;2.96;90.74;100642.70;1724712;83;21058;-65
2020/12/21 05:04:33;;;;;;;66.70;27.32;;;;;;;2.97;90.73;100641.91;1724657;83;21232;-65
2020/12/21 05:07:00;;;;;;;68.78;26.52;;;;;;;3.02;90.80;100646.05;1724686;83;21066;-65
2020/12/21 05:09:28;;;;;;;73.40;28.87;;;;;;;3.05;90.68;100648.80;1724613;83;21054;-65
2020/12/21 05:12:05;;;;;;;69.10;29.63;;;;;;;3.04;90.46;100650.87;1724801;83;21075;-65
2020/12/21 05:14:36;;;;;;;76.40;29.23;;;;;;;3.06;90.42;100654.82;1724901;83;21197;-65
2020/12/21 05:17:14;;;;;;;60.73;26.85;;;;;;;3.06;90.42;100649.32;1717834;83;21034;-64
2020/12/21 05:19:44;;;;;;;65.37;27.37;;;;;;;3.02;90.28;100648.61;1699588;84;21086;-65
2020/12/21 05:22:13;;;;;;;68.75;29.60;;;;;;;2.99;90.40;100649.68;1678496;83;21542;-64
2020/12/21 05:24:43;;;;;;;73.77;29.57;;;;;;;3.04;90.60;100649.59;1637326;84;21647;-66
2020/12/21 05:27:18;;;;;;;71.82;28.85;;;;;;;3.09;90.52;100645.70;1689555;83;21465;-65
2020/12/21 05:29:56;;;;;;;76.45;29.00;;;;;;;3.12;90.40;100643.34;1699496;83;21083;-66
2020/12/21 05:32:25;;;;;;;72.53;27.20;;;;;;;3.11;90.11;100654.73;1699731;84;21027;-65
2020/12/21 05:35:08;;;;;;;73.40;28.17;;;;;;;3.03;90.13;100656.38;1699555;84;21083;-65
2020/12/21 05:37:37;;;;;;;61.80;27.42;;;;;;;3.04;90.30;100653.42;1699387;84;21074;-65
2020/12/21 05:40:08;;;;;;;75.83;28.02;;;;;;;2.99;90.19;100653.11;1674599;84;21051;-64
2020/12/21 05:42:36;;;;;;;67.97;26.93;;;;;;;2.99;90.29;100658.61;1699607;84;21188;-66
2020/12/21 05:45:08;;;;;;;69.65;28.67;;;;;;;2.97;90.34;100658.88;1699344;84;21090;-65
2020/12/21 05:47:36;;;;;;;73.42;28.77;;;;;;;2.97;90.54;100654.66;1699363;84;21062;-65
2020/12/21 05:50:06;;;;;;;87.10;29.10;;;;;;;3.00;90.53;100658.72;1699392;84;21184;-65
2020/12/21 05:52:36;;;;;;;66.62;27.67;;;;;;;3.00;90.40;100652.71;1699373;84;21067;-64
2020/12/21 05:55:10;;;;;;;72.65;28.52;;;;;;;2.97;90.47;100656.33;1699477;84;21233;-65
2020/12/21 05:57:41;;;;;;;68.50;26.25;;;;;;;2.97;90.46;100658.88;1699505;83;21204;-65
2020/12/21 06:00:11;;;;;;;61.48;24.43;;;;;;;2.97;90.65;100657.61;1699747;83;21205;-65
2020/12/21 06:02:39;;;;;;;73.83;28.92;;;;;;;2.98;90.40;100655.17;1699283;84;21192;-66
2020/12/21 06:05:12;;;;;;;72.12;28.00;;;;;;;2.96;90.41;100662.22;1700414;83;21091;-67
2020/12/21 06:07:46;;;;;;;71.28;27.98;;;;;;;2.95;90.59;100654.97;1702231;83;21105;-64
2020/12/21 06:10:14;;;;;;;64.05;25.62;;;;;;;2.97;90.56;100662.70;1701646;84;21184;-66
2020/12/21 06:12:50;;;;;;;68.30;26.17;;;;;;;2.96;90.53;100663.50;1702289;84;21117;-65
2020/12/21 06:31:23;;;;;;;82.15;31.70;;;;;;;3.21;90.16;100669.88;1834670;77;22193;-65
2020/12/21 06:33:51;;;;;;;78.97;33.75;;;;;;;3.12;90.17;100676.91;1728644;82;21165;-65
2020/12/21 06:36:18;;;;;;;86.10;33.85;;;;;;;3.10;90.28;100679.34;1744655;82;21155;-65
2020/12/21 06:38:52;;;;;;;88.90;32.40;;;;;;;3.06;90.22;100680.32;1728767;83;21303;-65
2020/12/21 06:41:25;;;;;;;94.20;36.73;;;;;;;2.97;90.21;100678.89;1744785;82;21593;-65
2020/12/21 06:44:04;;;;;;;127.15;45.55;;;;;;;2.81;90.52;100674.41;1727047;82;21721;-65
2020/12/21 06:46:35;;;;;;;126.15;46.65;;;;;;;2.74;91.00;100673.88;1744571;82;21304;-65
2020/12/21 06:49:13;;;;;;;122.23;48.73;;;;;;;2.71;91.21;100678.77;1728798;83;21145;-65
2020/12/21 06:51:47;;;;;;;116.93;45.45;;;;;;;2.64;91.42;100683.81;1744589;81;21202;-65
2020/12/21 06:54:16;;;;;;;;;;;;;;;2.54;91.57;100690.31;1731187;83;21141;-65
2020/12/21 06:56:49;;;;;;;117.72;45.73;;;;;;;2.42;91.90;100687.80;1744929;82;20146;-64
2020/12/21 06:59:20;;;;;;;131.15;48.15;;;;;;;2.36;92.36;100686.07;1728800;83;21296;-65
2020/12/21 07:01:50;;;;;;;126.05;50.58;;;;;;;2.36;92.89;100687.34;1744679;82;21171;-65
2020/12/21 07:04:25;;;;;;;110.78;44.65;;;;;;;2.30;93.21;100693.30;1728823;83;21338;-64
2020/12/21 07:06:53;;;;;;;136.50;51.65;;;;;;;2.24;93.62;100689.92;1744540;81;21281;-72
2020/12/21 07:09:26;;;;;;;104.58;41.58;;;;;;;2.23;93.85;100691.95;1723672;83;21311;-72
2020/12/21 07:12:07;;;;;;;125.07;49.23;;;;;;;2.22;94.07;100692.74;1707001;84;21515;-70
2020/12/21 07:14:40;;;;;;;95.12;37.58;;;;;;;2.19;94.31;100689.98;1708141;84;21193;-73
2020/12/21 07:17:15;;;;;;;83.00;35.55;;;;;;;2.20;94.45;100696.83;1679166;84;21302;-73
2020/12/21 07:19:45;;;;;;;91.53;37.23;;;;;;;2.23;94.56;100693.63;1707945;83;21158;-69
2020/12/21 07:22:13;;;;;;;97.65;42.70;;;;;;;2.23;94.79;100688.13;1708346;84;21315;-70
2020/12/21 07:24:42;;;;;;;105.55;43.63;;;;;;;2.23;94.77;100689.41;1707625;82;21600;-71
2020/12/21 07:27:10;;;;;;;108.32;39.08;;;;;;;2.24;94.88;100694.11;1708271;84;21158;-68
2020/12/21 07:29:43;;;;;;;100.85;41.18;;;;;;;2.27;94.96;100687.98;1706227;83;21688;-68
2020/12/21 07:32:12;;;;;;;98.82;41.23;;;;;;;2.38;95.12;100687.08;1738292;81;21173;-71
2020/12/21 07:34:40;;;;;;;81.60;33.18;;;;;;;2.42;95.02;100686.89;1738438;81;21320;-69
2020/12/21 07:37:12;;;;;;;82.12;36.93;;;;;;;2.53;95.21;100685.61;1738305;81;21154;-71
2020/12/21 07:39:39;;;;;;;89.37;35.92;;;;;;;2.62;94.99;100685.39;1738663;81;21197;-70
2020/12/21 07:42:11;;;;;;;74.53;32.28;;;;;;;2.68;94.85;100676.89;1737979;82;21174;-73
2020/12/21 07:44:47;;;;;;;87.85;36.53;;;;;;;2.75;94.75;100681.64;1737818;81;21287;-72
2020/12/21 07:47:30;;;;;;;82.70;37.15;;;;;;;2.64;94.14;100677.83;1737768;81;21287;-70
2020/12/21 07:49:58;;;;;;;106.78;44.05;;;;;;;2.53;94.42;100683.45;1738054;81;21576;-71
2020/12/21 07:52:26;;;;;;;96.67;42.50;;;;;;;2.43;94.44;100684.86;1737838;81;21165;-73
2020/12/21 07:54:59;;;;;;;112.30;46.42;;;;;;;2.34;94.75;100682.52;1737768;81;21137;-72
2020/12/21 07:57:30;;;;;;;85.60;41.53;;;;;;;2.30;94.96;100683.10;1738040;81;21174;-70
2020/12/21 08:00:01;;;;;;;73.40;34.95;;;;;;;2.31;95.10;100680.64;1738670;81;21150;-69
2020/12/21 08:02:32;;;;;;;61.65;32.45;;;;;;;2.32;94.98;100682.44;1738677;81;21142;-72
2020/12/21 08:05:01;;;;;;;62.50;30.48;;;;;;;2.30;94.90;100680.55;1738689;81;21146;-69
2020/12/21 08:07:33;;;;;;;58.55;29.23;;;;;;;2.17;94.79;100680.94;1738483;81;21292;-70
2020/12/21 08:10:00;;;;;;;69.62;27.65;;;;;;;2.04;94.97;100675.75;1738111;81;21311;-69
2020/12/21 08:12:34;;;;;;;58.05;25.35;;;;;;;1.96;95.31;100671.77;1738048;81;21141;-72
2020/12/21 08:15:05;;;;;;;48.33;23.65;;;;;;;2.00;95.85;100670.32;1737955;81;21528;-70
2020/12/21 08:17:32;;;;;;;47.45;25.00;;;;;;;2.06;95.71;100675.48;1738154;81;21244;-71
2020/12/21 08:20:06;;;;;;;39.40;20.52;;;;;;;2.12;95.52;100678.45;1737948;81;21111;-73
2020/12/21 08:22:40;;;;;;;52.83;26.15;;;;;;;2.07;95.05;100686.16;1738055;81;21125;-69
2020/12/21 08:25:14;;;;;;;41.80;24.00;;;;;;;2.07;95.34;100684.87;1737893;81;21144;-71
2020/12/21 08:27:52;;;;;;;48.65;27.00;;;;;;;2.14;95.30;100690.92;1738013;81;21280;-73
2020/12/21 08:30:22;;;;;;;47.33;25.00;;;;;;;2.14;94.87;100682.40;1737846;81;21165;-69
2020/12/21 08:32:52;;;;;;;40.65;23.55;;;;;;;2.17;94.92;100687.70;1737964;81;21284;-71
2020/12/21 08:35:27;;;;;;;40.52;24.67;;;;;;;2.18;94.62;100685.64;1738055;81;21189;-70
2020/12/21 08:38:11;;;;;;;27.90;17.42;;;;;;;2.18;94.65;100685.64;1737950;81;21683;-72
2020/12/21 08:40:37;;;;;;;22.13;12.23;;;;;;;2.14;94.52;100692.59;1738014;82;21196;-72
2020/12/21 08:43:05;;;;;;;20.70;11.83;;;;;;;2.14;93.95;100684.95;1737779;81;21150;-70
2020/12/21 08:45:38;;;;;;;21.80;11.73;;;;;;;2.13;93.52;100681.88;1737832;81;21154;-73
2020/12/21 08:48:05;;;;;;;27.60;17.40;;;;;;;2.06;93.44;100684.39;1737868;82;21169;-71
2020/12/21 08:50:33;;;;;;;25.75;15.93;;;;;;;2.06;93.84;100680.94;1738049;81;21683;-71
2020/12/21 08:53:00;;;;;;;25.95;14.20;;;;;;;2.11;94.08;100680.87;1737903;81;21177;-72
2020/12/21 08:55:28;;;;;;;29.30;15.93;;;;;;;2.16;94.02;100683.37;1737812;81;21154;-70
2020/12/21 08:57:55;;;;;;;21.95;14.00;;;;;;;2.20;93.89;100677.73;1737952;82;21189;-73
2020/12/21 09:00:23;;;;;;;24.63;13.70;;;;;;;2.23;93.65;100677.94;1737947;81;21178;-71
2020/12/21 09:02:50;;;;;;;20.57;13.20;;;;;;;2.23;93.57;100670.30;1737870;82;21146;-71
2020/12/21 09:05:18;;;;;;;23.35;14.75;;;;;;;2.18;93.34;100675.06;1737987;81;21288;-72
2020/12/21 09:07:45;;;;;;;26.70;15.32;;;;;;;2.09;93.42;100672.27;1737929;81;21130;-71
2020/12/21 09:10:14;;;;;;;21.30;13.48;;;;;;;1.98;93.63;100675.28;1737867;81;21158;-73
2020/12/21 09:12:42;;;;;;;24.70;15.45;;;;;;;1.89;93.92;100669.55;1737959;82;21175;-72
2020/12/21 09:15:10;;;;;;;25.15;16.10;;;;;;;1.86;94.37;100659.15;1737964;81;21171;-69
2020/12/21 09:17:37;;;;;;;28.67;15.90;;;;;;;1.81;94.38;100657.53;1737788;81;21146;-70
2020/12/21 09:20:06;;;;;;;27.25;16.87;;;;;;;1.78;94.74;100664.05;1737799;81;21158;-70
2020/12/21 09:22:33;;;;;;;27.17;15.43;;;;;;;1.68;95.01;100666.30;1737898;82;21284;-72
2020/12/21 09:25:00;;;;;;;19.87;11.75;;;;;;;1.63;95.29;100668.88;1737795;82;21150;-71
2020/12/21 09:27:30;;;;;;;20.43;12.80;;;;;;;1.61;95.45;100677.70;1737901;81;21126;-73
2020/12/21 09:29:57;;;;;;;23.83;15.18;;;;;;;1.57;95.50;100669.72;1738095;81;21573;-70
2020/12/21 09:32:25;;;;;;;25.92;15.40;;;;;;;1.50;95.87;100669.28;1762035;80;21152;-71
2020/12/21 09:34:52;;;;;;;29.80;16.15;;;;;;;1.46;96.36;100662.17;1762014;80;21133;-72
2020/12/21 09:37:20;;;;;;;27.55;15.40;;;;;;;1.45;96.66;100664.23;1761969;80;21536;-73
2020/12/21 09:39:48;;;;;;;25.43;15.88;;;;;;;1.47;96.75;100666.88;1761911;80;21157;-71
2020/12/21 09:42:16;;;;;;;28.95;17.12;;;;;;;1.52;96.80;100661.73;1762158;80;21512;-70
2020/12/21 09:44:44;;;;;;;26.30;14.30;;;;;;;1.58;96.87;100657.48;1761945;80;21291;-69
2020/12/21 09:47:11;;;;;;;27.13;14.87;;;;;;;1.63;96.76;100655.80;1761985;80;21173;-72
2020/12/21 09:49:39;;;;;;;30.23;17.15;;;;;;;1.68;96.63;100658.30;1762129;80;21697;-69
2020/12/21 09:52:07;;;;;;;32.60;17.70;;;;;;;1.68;96.60;100647.20;1762022;80;21291;-72
2020/12/21 09:54:35;;;;;;;34.13;16.48;;;;;;;1.70;96.67;100645.67;1762155;81;21287;-70
2020/12/21 09:57:02;;;;;;;29.35;15.83;;;;;;;1.78;96.79;100640.77;1761976;80;21137;-71
2020/12/21 09:59:30;;;;;;;35.70;14.45;;;;;;;1.80;96.41;100641.74;1762034;80;21299;-71
2020/12/21 10:01:57;;;;;;;34.13;18.82;;;;;;;1.75;96.55;100637.98;1762132;80;21567;-73
2020/12/21 10:04:25;;;;;;;35.13;16.62;;;;;;;1.77;96.70;100642.80;1761899;80;21173;-72
2020/12/21 10:06:52;;;;;;;32.15;14.78;;;;;;;1.79;96.72;100647.63;1761919;81;21555;-72
2020/12/21 10:09:21;;;;;;;33.15;16.67;;;;;;;1.73;96.62;100649.70;1760118;80;21575;-70
2020/12/21 10:11:51;;;;;;;27.35;17.70;;;;;;;1.68;96.73;100647.20;1762025;80;21143;-70
2020/12/21 10:14:18;;;;;;;23.15;14.78;;;;;;;1.59;96.89;100647.83;1761923;80;21294;-72
2020/12/21 10:16:48;;;;;;;21.15;14.38;;;;;;;1.49;97.01;100647.13;1761975;81;21165;-71
2020/12/21 10:19:16;;;;;;;23.52;13.75;;;;;;;1.44;97.32;100643.36;1734646;81;21101;-72
2020/12/21 10:21:43;;;;;;;25.88;14.13;;;;;;;1.40;97.33;100636.30;1762123;81;21291;-70
2020/12/21 10:24:11;;;;;;;22.82;14.75;;;;;;;1.37;97.42;100643.67;1762043;80;21319;-70
2020/12/21 10:26:41;;;;;;;24.10;14.73;;;;;;;1.36;97.85;100639.38;1761925;80;21176;-72
2020/12/21 10:29:09;;;;;;;27.73;15.80;;;;;;;1.33;97.93;100631.91;1762216;81;21161;-71
2020/12/21 10:31:37;;;;;;;28.62;17.55;;;;;;;1.29;98.12;100640.95;1748211;80;21200;-71
2020/12/21 10:34:05;;;;;;;24.65;15.05;;;;;;;1.27;98.30;100643.77;1737770;81;21142;-70
2020/12/21 10:36:33;;;;;;;24.55;15.18;;;;;;;1.24;98.41;100647.35;1737735;82;21178;-73
2020/12/21 10:39:00;;;;;;;29.52;15.45;;;;;;;1.21;98.35;100648.01;1737789;81;21665;-69
2020/12/21 10:41:33;;;;;;;25.85;15.70;;;;;;;1.21;98.37;100643.31;1737880;81;21322;-71
2020/12/21 10:44:01;;;;;;;26.17;13.50;;;;;;;1.26;98.27;100640.73;1737913;81;21672;-70
2020/12/21 10:46:30;;;;;;;24.37;13.58;;;;;;;1.30;97.99;100642.74;1737939;81;21537;-72
2020/12/21 10:48:58;;;;;;;14.90;9.28;;;;;;;1.33;97.66;100634.06;1737745;82;21110;-71
2020/12/21 10:51:30;;;;;;;17.48;9.85;;;;;;;1.36;97.41;100647.00;1737916;81;21572;-69
2020/12/21 10:53:58;;;;;;;15.40;9.40;;;;;;;1.29;96.56;100635.47;1737787;81;21272;-69
2020/12/21 10:56:27;;;;;;;15.25;8.48;;;;;;;1.27;97.16;100632.31;1737729;81;21134;-71
2020/12/21 10:58:56;;;;;;;20.27;10.60;;;;;;;1.26;97.48;100636.91;1737908;81;21686;-69
2020/12/21 11:01:23;;;;;;;18.87;10.88;;;;;;;1.24;97.74;100629.55;1737828;82;21663;-68
2020/12/21 11:03:51;;;;;;;22.93;11.35;;;;;;;1.26;98.00;100634.38;1737725;81;21293;-67
2020/12/21 11:06:23;;;;;;;21.12;12.28;;;;;;;1.23;98.11;100632.88;1737877;81;21158;-68
2020/12/21 11:08:53;;;;;;;20.40;11.33;;;;;;;1.23;98.26;100635.42;1737750;81;21672;-69
2020/12/21 11:11:28;;;;;;;23.90;14.53;;;;;;;1.25;98.29;100635.16;1737893;81;21623;-69
2020/12/21 11:13:55;;;;;;;19.00;12.60;;;;;;;1.25;98.42;100630.07;1737744;81;21150;-68
2020/12/21 11:16:23;;;;;;;27.70;10.98;;;;;;;1.25;98.44;100630.07;1737764;81;21328;-70
2020/12/21 11:18:51;;;;;;;23.20;12.18;;;;;;;1.23;98.44;100630.34;1738150;81;21122;-71
2020/12/21 11:21:19;;;;;;;25.88;11.10;;;;;;;1.20;98.11;100632.27;1737868;81;21330;-67
2020/12/21 11:23:49;;;;;;;23.77;14.07;;;;;;;1.25;98.35;100633.89;1736333;81;21208;-70
2020/12/21 11:26:18;;;;;;;33.73;14.90;;;;;;;1.28;98.21;100632.84;1737892;81;21556;-68
2020/12/21 11:28:48;;;;;;;20.70;10.98;;;;;;;1.26;98.11;100631.44;1738019;81;21154;-68
2020/12/21 11:31:17;;;;;;;19.32;10.63;;;;;;;1.26;98.14;100629.28;1744970;81;21174;-70
2020/12/21 11:33:45;;;;;;;22.00;13.13;;;;;;;1.22;98.07;100632.36;1762231;81;21528;-70
2020/12/21 11:36:12;;;;;;;23.57;11.95;;;;;;;1.19;98.26;100626.66;1761993;80;21188;-70
2020/12/21 11:38:41;;;;;;;35.48;17.65;;;;;;;1.20;98.42;100627.57;1762253;80;21571;-69
2020/12/21 11:41:09;;;;;;;26.00;14.68;;;;;;;1.16;98.52;100628.09;1762242;81;21607;-70